Airfield :
LOGIN :

Register | Disclaimer

   EN    FR    IT 

 










Legend :    VFR   Marginal VFR   IFR   Intensive IFR   Very Intensive IFR
Visi :
Ceiling :
>= 8 km
>= 3000ft
5 to 8 km
1000 to 3000 ft
1500m to 5 km
500 to 1000 ft
800 to 1500m
200 to 500 ft
< 800m
< 200 ft
Symbols :   Thunderstorms  Fog  Heavy snow  Heavy precipitations  Wind > 20 kt
SIGMETs :     Misc.  Thunderstorms  Icing  Turbulence  Mountain Waves  Volcanic Ashes






- Airport Elevation : 325 ft


LPCS - Cascais

CURRENT METAR :
  • 281700Z 36026G36KT CAVOK 20/09 Q1024

EXPIRED METARs :
  • 281630Z 36024KT CAVOK 21/09 Q1024
  • 281600Z 34019KT 9999 FEW030 21/09 Q1023
  • 281530Z 35020KT 9999 FEW030 21/09 Q1023
  • 281500Z 34017KT 310V020 9999 FEW030 22/12 Q1023
  • 281430Z 34018G28KT 310V010 9999 FEW030 22/12 Q1024

TAF TAF LPCS
Valid from the 28 at 15:00 until the 29 at 00:00 UTC


281400Z 2815/2824 35015KT 9999 FEW025
TEMPO 2815/2822 35020G30KT



MET'MAP, your aeronautical weather chart ! - Copyright ORBIFLY December 2007 - Disclaimer

ORBIFLY MET'MAP TEAM :

Programming & Development : Alexandra Zaïnal
Concept & original design : Baudouin d'Aumeries
Assistance for programming : Marc-Olivier Méhu
Technical & hardware support : Manuel Goepfert

Contact : metmap@orbifly.com




SOURCES & CREDITS :

   NOAA